Time;durP1;ratioP1;P1;durP2;ratioP2;P2;SDS_P1;SDS_P2;PMS_P1;PMS_P2;Temp;Humidity;BMP_temperature;BMP_pressure;BME280_temperature;BME280_humidity;BME280_pressure;Samples;Min_cycle;Max_cycle;Signal;HPM_P1;HPM_P2
2022/10/14 00:01:21;;;;;;;182.40;49.75;;;11.30;99.90;;;;;;5078765;27;20092;-75
2022/10/14 00:03:47;;;;;;;210.82;51.42;;;11.30;99.90;;;;;;5089042;28;20036;-75
2022/10/14 00:06:16;;;;;;;298.20;56.60;;;11.30;99.90;;;;;;5071481;28;20118;-76
2022/10/14 00:08:43;;;;;;;343.38;57.60;;;11.40;99.90;;;;;;5083775;28;20106;-78
2022/10/14 00:11:12;;;;;;;326.50;58.45;;;11.40;99.90;;;;;;5082026;28;20059;-75
2022/10/14 00:13:38;;;;;;;482.73;63.25;;;11.50;99.90;;;;;;5096243;27;20044;-74
2022/10/14 00:16:06;;;;;;;431.45;61.92;;;11.50;99.90;;;;;;5054291;28;20044;-75
2022/10/14 00:18:31;;;;;;;522.53;65.82;;;11.50;99.90;;;;;;5080781;27;20078;-75
2022/10/14 00:21:00;;;;;;;575.20;67.43;;;11.50;99.90;;;;;;5077597;28;20097;-74
2022/10/14 00:23:26;;;;;;;490.42;60.88;;;11.50;99.90;;;;;;5086805;28;20051;-74
2022/10/14 00:25:52;;;;;;;525.22;64.00;;;11.60;99.90;;;;;;5092975;27;20592;-75
2022/10/14 00:28:19;;;;;;;594.00;68.95;;;11.60;99.90;;;;;;5092718;27;20063;-76
2022/10/14 00:30:58;;;;;;;562.65;64.85;;;11.50;99.90;;;;;;5074035;28;20489;-78
2022/10/14 00:33:25;;;;;;;527.10;60.83;;;11.50;99.90;;;;;;5105273;28;20036;-75
2022/10/14 00:36:02;;;;;;;538.30;62.38;;;11.50;99.90;;;;;;5054621;28;20062;-74
2022/10/14 00:38:28;;;;;;;541.85;58.00;;;11.50;99.90;;;;;;5075298;28;20071;-74
2022/10/14 00:40:54;;;;;;;538.67;57.92;;;11.50;99.90;;;;;;5089871;28;20490;-75
2022/10/14 00:43:22;;;;;;;601.40;59.10;;;11.40;99.90;;;;;;5071378;28;20038;-75
2022/10/14 00:45:48;;;;;;;605.60;60.70;;;11.40;99.90;;;;;;5070687;28;20056;-75
2022/10/14 00:48:15;;;;;;;593.67;64.30;;;11.40;99.90;;;;;;5086684;28;20486;-75
2022/10/14 00:50:44;;;;;;;481.38;56.45;;;11.40;99.90;;;;;;5078857;28;20050;-75
2022/10/14 00:53:12;;;;;;;635.20;64.60;;;11.40;99.90;;;;;;5082456;28;20060;-75
2022/10/14 00:55:39;;;;;;;522.17;59.33;;;11.40;99.90;;;;;;5063624;28;20043;-75
2022/10/14 00:58:06;;;;;;;491.52;56.42;;;11.30;99.90;;;;;;5076705;28;20032;-75
2022/10/14 01:00:32;;;;;;;592.63;62.17;;;11.40;99.90;;;;;;5086765;28;20483;-75
2022/10/14 01:02:58;;;;;;;606.97;64.82;;;11.40;99.90;;;;;;5072651;28;20802;-75
2022/10/14 01:05:30;;;;;;;222.80;43.78;;;11.40;99.90;;;;;;5078532;28;20044;-74
2022/10/14 01:08:13;;;;;;;523.75;63.00;;;11.40;99.90;;;;;;5091539;28;20039;-75
2022/10/14 01:10:45;;;;;;;571.80;63.95;;;11.40;99.90;;;;;;5091081;28;20052;-75
2022/10/14 01:13:34;;;;;;;595.35;62.60;;;11.40;99.90;;;;;;5106564;28;20297;-75
2022/10/14 01:16:14;;;;;;;433.83;50.47;;;11.40;99.90;;;;;;5080072;28;20478;-75
2022/10/14 01:18:52;;;;;;;495.60;58.15;;;11.40;99.90;;;;;;5112290;27;20043;-77
2022/10/14 01:21:30;;;;;;;524.42;57.85;;;11.40;99.90;;;;;;5083083;28;20039;-74
2022/10/14 01:24:04;;;;;;;484.73;55.42;;;11.30;99.90;;;;;;5113217;27;20117;-74
2022/10/14 01:26:54;;;;;;;546.97;60.08;;;11.30;99.90;;;;;;5079881;27;20054;-75
2022/10/14 01:29:44;;;;;;;489.63;56.75;;;11.30;99.90;;;;;;5096646;27;20044;-75
2022/10/14 01:32:21;;;;;;;474.50;54.53;;;11.30;99.90;;;;;;5076741;28;20815;-75
2022/10/14 01:34:57;;;;;;;435.00;50.45;;;11.20;99.90;;;;;;5086239;28;20063;-74
2022/10/14 01:37:27;;;;;;;498.92;51.50;;;11.20;99.90;;;;;;5090796;27;20047;-75
2022/10/14 01:40:05;;;;;;;534.42;57.25;;;11.10;99.90;;;;;;5088768;27;20044;-79
2022/10/14 01:42:35;;;;;;;641.67;61.20;;;11.20;99.90;;;;;;5095218;27;20047;-75
2022/10/14 01:45:10;;;;;;;510.70;53.38;;;11.10;99.90;;;;;;5094870;28;20047;-75
2022/10/14 01:47:37;;;;;;;384.77;46.10;;;11.10;99.90;;;;;;5080605;28;20047;-77
2022/10/14 01:50:16;;;;;;;328.35;41.38;;;11.00;99.90;;;;;;5066046;28;20040;-75
2022/10/14 01:52:50;;;;;;;415.33;47.65;;;11.00;99.90;;;;;;5088633;28;20041;-76
2022/10/14 01:55:22;;;;;;;333.05;42.15;;;11.00;99.90;;;;;;5092052;27;20048;-76
2022/10/14 01:57:50;;;;;;;364.17;41.10;;;11.00;99.90;;;;;;5107719;27;20044;-75
2022/10/14 02:00:15;;;;;;;386.85;41.67;;;11.00;99.90;;;;;;5077120;27;20052;-75
2022/10/14 02:02:41;;;;;;;390.27;41.50;;;10.90;99.90;;;;;;5098866;27;20056;-75
2022/10/14 02:05:27;;;;;;;455.23;45.30;;;10.90;99.90;;;;;;5054532;27;20057;-75
2022/10/14 02:08:01;;;;;;;378.17;43.38;;;10.90;99.90;;;;;;5100847;27;20034;-75
2022/10/14 02:10:45;;;;;;;445.20;45.95;;;11.00;99.90;;;;;;5100981;28;20051;-75
2022/10/14 02:13:31;;;;;;;314.75;34.42;;;11.10;99.90;;;;;;5100404;28;20501;-75
2022/10/14 02:16:13;;;;;;;346.08;33.92;;;11.00;99.90;;;;;;5090082;27;20122;-79
2022/10/14 02:18:48;;;;;;;348.88;35.47;;;11.00;99.90;;;;;;5110234;27;20093;-76
2022/10/14 02:21:24;;;;;;;439.50;37.15;;;10.90;99.90;;;;;;5090848;28;20047;-76
2022/10/14 02:23:56;;;;;;;;;;;11.00;99.90;;;;;;5093590;28;20082;-78
2022/10/14 02:26:22;;;;;;;398.60;36.28;;;11.00;99.90;;;;;;5094409;28;19947;-75
2022/10/14 02:28:50;;;;;;;391.85;37.42;;;10.90;99.90;;;;;;5087108;28;20044;-76
2022/10/14 02:31:17;;;;;;;437.02;39.20;;;11.00;99.90;;;;;;5073233;28;20052;-74
2022/10/14 02:33:48;;;;;;;428.20;38.42;;;11.00;99.90;;;;;;5084279;27;20103;-76
2022/10/14 02:36:17;;;;;;;262.02;30.30;;;11.00;99.90;;;;;;5079019;28;20040;-76
2022/10/14 02:38:44;;;;;;;305.33;33.97;;;11.00;99.90;;;;;;5077517;28;20663;-75
2022/10/14 02:41:15;;;;;;;217.23;29.50;;;11.00;99.90;;;;;;5095897;28;20092;-75
2022/10/14 02:43:42;;;;;;;392.55;40.33;;;11.00;99.90;;;;;;5076234;27;20047;-75
2022/10/14 02:46:08;;;;;;;375.85;40.95;;;11.00;99.90;;;;;;5092299;28;20126;-75
2022/10/14 02:48:33;;;;;;;325.63;40.80;;;11.00;99.90;;;;;;5070191;28;20132;-76
2022/10/14 02:50:59;;;;;;;264.80;37.97;;;11.00;99.90;;;;;;5089674;28;20048;-76
2022/10/14 02:53:25;;;;;;;249.02;36.35;;;11.00;99.90;;;;;;5074500;28;20430;-75
2022/10/14 02:55:50;;;;;;;327.45;39.28;;;11.00;99.90;;;;;;5087211;28;20035;-75
2022/10/14 02:58:16;;;;;;;266.20;38.05;;;10.90;99.90;;;;;;5075747;28;20047;-75
2022/10/14 03:00:42;;;;;;;300.17;40.65;;;10.90;99.90;;;;;;5058347;28;20063;-75
2022/10/14 03:03:07;;;;;;;289.10;37.53;;;10.90;99.90;;;;;;5083049;28;20048;-76
2022/10/14 03:05:33;;;;;;;309.48;35.67;;;10.90;99.90;;;;;;5069575;28;20048;-76
2022/10/14 03:07:59;;;;;;;193.90;22.98;;;10.90;99.90;;;;;;5053025;28;20048;-76
2022/10/14 03:10:24;;;;;;;291.77;29.75;;;10.90;99.90;;;;;;5069195;28;20081;-75
2022/10/14 03:12:50;;;;;;;274.13;27.75;;;10.80;99.90;;;;;;5072712;28;20044;-75
2022/10/14 03:15:16;;;;;;;374.85;31.77;;;10.90;99.90;;;;;;5078053;28;20037;-75
2022/10/14 03:17:42;;;;;;;327.10;31.38;;;10.90;99.90;;;;;;5073788;28;20048;-75
2022/10/14 03:20:08;;;;;;;299.63;33.08;;;10.80;99.90;;;;;;5069142;28;20044;-80
2022/10/14 03:22:34;;;;;;;326.52;33.65;;;10.80;99.90;;;;;;5072410;28;20128;-76
2022/10/14 03:25:00;;;;;;;368.38;33.60;;;10.80;99.90;;;;;;5075380;28;20127;-76
2022/10/14 03:27:25;;;;;;;448.55;38.45;;;10.80;99.90;;;;;;5059216;28;20040;-75
2022/10/14 03:29:51;;;;;;;416.70;38.35;;;10.80;99.90;;;;;;5068368;28;20052;-74
2022/10/14 03:32:17;;;;;;;222.80;29.00;;;10.70;99.90;;;;;;5082547;28;20036;-74
2022/10/14 03:34:42;;;;;;;205.95;27.13;;;10.70;99.90;;;;;;5059956;28;20070;-75
2022/10/14 03:37:08;;;;;;;178.38;25.35;;;10.70;99.90;;;;;;5079478;28;20036;-79
2022/10/14 03:39:34;;;;;;;150.65;22.98;;;10.70;99.90;;;;;;5077597;28;20045;-76
2022/10/14 03:41:59;;;;;;;241.13;27.13;;;10.70;99.90;;;;;;5069041;28;20044;-76
2022/10/14 03:44:25;;;;;;;172.48;23.65;;;10.70;99.90;;;;;;5061867;28;20051;-75
2022/10/14 03:46:51;;;;;;;251.93;27.67;;;10.70;99.90;;;;;;5070388;28;20056;-76
2022/10/14 03:49:16;;;;;;;182.48;25.55;;;10.60;99.90;;;;;;5086540;28;20105;-75
2022/10/14 03:51:42;;;;;;;215.32;25.27;;;10.60;99.90;;;;;;5086382;28;20466;-75
2022/10/14 03:54:08;;;;;;;179.52;20.85;;;10.60;99.90;;;;;;5077993;28;20055;-75
2022/10/14 03:56:33;;;;;;;177.10;20.95;;;10.60;99.90;;;;;;5057951;28;20044;-77
2022/10/14 03:58:59;;;;;;;188.43;21.55;;;10.60;99.90;;;;;;5059251;28;20086;-75
2022/10/14 04:01:25;;;;;;;163.88;21.02;;;10.60;99.90;;;;;;5072255;28;20119;-75
2022/10/14 04:03:51;;;;;;;192.70;22.73;;;10.50;99.90;;;;;;5061025;28;20120;-75
2022/10/14 04:06:16;;;;;;;194.63;21.88;;;10.50;99.90;;;;;;5074590;28;20036;-75
2022/10/14 04:08:43;;;;;;;178.57;22.88;;;10.50;99.90;;;;;;5074623;28;20560;-75
2022/10/14 04:11:08;;;;;;;182.13;22.23;;;10.50;99.90;;;;;;5063374;28;20052;-77
2022/10/14 04:13:35;;;;;;;211.98;23.73;;;10.50;99.90;;;;;;5077932;28;20081;-75
2022/10/14 04:16:09;;;;;;;167.52;22.85;;;10.50;99.90;;;;;;5081802;28;20040;-76
2022/10/14 04:18:35;;;;;;;155.43;21.48;;;10.60;99.90;;;;;;5068402;28;20649;-75
2022/10/14 04:21:07;;;;;;;183.57;23.35;;;10.60;99.90;;;;;;5086303;28;20386;-75
2022/10/14 04:23:33;;;;;;;138.55;21.63;;;10.60;99.90;;;;;;5075636;28;20093;-75
2022/10/14 04:26:04;;;;;;;148.23;21.75;;;10.60;99.90;;;;;;5069535;28;20067;-75
2022/10/14 04:28:30;;;;;;;136.00;22.60;;;10.70;99.90;;;;;;5087046;28;20422;-75
2022/10/14 04:30:56;;;;;;;170.77;23.58;;;10.60;99.90;;;;;;5091190;28;20486;-75
2022/10/14 04:33:22;;;;;;;121.30;22.13;;;10.70;99.90;;;;;;5086034;28;20042;-75
2022/10/14 04:35:47;;;;;;;92.70;20.25;;;10.70;99.90;;;;;;5071085;28;20063;-75
2022/10/14 04:38:13;;;;;;;188.90;25.45;;;10.70;99.90;;;;;;5086451;28;20115;-78
2022/10/14 04:40:39;;;;;;;149.90;27.38;;;10.70;99.90;;;;;;5061012;28;20051;-76
2022/10/14 04:43:04;;;;;;;128.55;23.70;;;10.70;99.90;;;;;;5085385;28;20391;-75
2022/10/14 04:45:31;;;;;;;170.27;25.75;;;10.70;99.90;;;;;;5082506;28;20050;-75
2022/10/14 04:47:56;;;;;;;180.30;24.17;;;10.80;99.90;;;;;;5077970;28;20127;-76
2022/10/14 04:50:22;;;;;;;172.93;26.20;;;10.80;99.90;;;;;;5070184;28;20135;-75
2022/10/14 04:52:48;;;;;;;127.18;22.60;;;10.80;99.90;;;;;;5089605;28;20079;-75
2022/10/14 04:55:13;;;;;;;145.25;23.30;;;10.80;99.90;;;;;;5089732;28;20044;-76
2022/10/14 04:57:42;;;;;;;168.10;23.83;;;10.80;99.90;;;;;;5055762;28;20044;-75
2022/10/14 05:00:08;;;;;;;168.90;24.27;;;10.70;99.90;;;;;;5061965;28;20139;-75
2022/10/14 05:02:34;;;;;;;161.57;24.27;;;10.70;99.90;;;;;;5105359;27;20059;-76
2022/10/14 05:05:00;;;;;;;138.98;23.05;;;10.70;99.90;;;;;;5105496;27;20379;-75
2022/10/14 05:07:25;;;;;;;186.35;25.73;;;10.80;99.90;;;;;;5085188;28;20060;-76
2022/10/14 05:09:51;;;;;;;133.27;23.77;;;10.70;99.90;;;;;;5069594;28;20044;-74
2022/10/14 05:12:17;;;;;;;196.80;26.00;;;10.70;99.90;;;;;;5062158;28;20040;-74
2022/10/14 05:14:42;;;;;;;116.97;23.13;;;10.70;99.90;;;;;;5069862;28;20119;-76
2022/10/14 05:17:08;;;;;;;143.15;24.95;;;10.80;99.90;;;;;;5097110;28;20533;-76
2022/10/14 05:19:34;;;;;;;189.30;27.67;;;10.80;99.90;;;;;;5073271;28;20505;-76
2022/10/14 05:21:59;;;;;;;268.83;32.30;;;10.80;99.90;;;;;;5083957;28;20382;-75
2022/10/14 05:24:25;;;;;;;149.07;26.83;;;10.80;99.90;;;;;;5077044;28;20398;-79
2022/10/14 05:26:51;;;;;;;176.80;29.15;;;10.80;99.90;;;;;;5066518;28;20044;-77
2022/10/14 05:29:16;;;;;;;170.85;27.55;;;10.80;99.90;;;;;;5091149;28;20040;-75
2022/10/14 05:31:42;;;;;;;183.02;29.35;;;10.80;99.90;;;;;;5078873;28;20054;-75
2022/10/14 05:34:08;;;;;;;257.73;31.95;;;10.80;99.90;;;;;;5049858;28;20037;-76
2022/10/14 05:36:33;;;;;;;171.60;29.50;;;10.80;99.90;;;;;;5085368;28;20060;-76
2022/10/14 05:38:59;;;;;;;157.32;27.40;;;10.90;99.90;;;;;;5075976;28;20090;-75
2022/10/14 05:41:25;;;;;;;164.00;27.67;;;10.80;99.90;;;;;;5083317;28;20082;-79
2022/10/14 05:43:50;;;;;;;158.35;27.33;;;10.80;99.90;;;;;;5105466;27;20028;-75
2022/10/14 05:46:16;;;;;;;249.32;32.88;;;10.90;99.90;;;;;;5055312;28;20048;-75
2022/10/14 05:48:42;;;;;;;243.05;31.58;;;10.90;99.90;;;;;;5075623;28;20040;-75
2022/10/14 05:51:08;;;;;;;224.80;31.83;;;10.90;99.90;;;;;;5052789;28;20475;-74
2022/10/14 05:53:34;;;;;;;264.42;35.80;;;10.90;99.90;;;;;;5069674;28;20044;-75
2022/10/14 05:56:05;;;;;;;265.00;35.38;;;10.90;99.90;;;;;;5070214;28;20109;-73
2022/10/14 05:58:31;;;;;;;168.55;29.27;;;10.90;99.90;;;;;;5087818;28;20134;-74
2022/10/14 06:01:05;;;;;;;165.68;29.83;;;10.90;99.90;;;;;;5070882;28;20525;-74
2022/10/14 06:03:31;;;;;;;195.07;31.33;;;10.90;99.90;;;;;;5069145;28;20352;-74
2022/10/14 06:05:56;;;;;;;195.02;32.65;;;10.80;99.90;;;;;;5081268;28;20051;-73
2022/10/14 06:08:23;;;;;;;238.55;33.38;;;10.90;99.90;;;;;;5056431;28;20076;-73
2022/10/14 06:10:49;;;;;;;156.85;30.38;;;10.90;99.90;;;;;;5070482;28;20559;-74
2022/10/14 06:13:15;;;;;;;311.70;35.15;;;10.90;99.90;;;;;;5074125;28;20114;-74
2022/10/14 06:15:41;;;;;;;198.00;32.05;;;10.90;99.90;;;;;;5065262;28;20479;-73
2022/10/14 06:18:08;;;;;;;258.15;33.10;;;10.90;99.90;;;;;;5070405;28;20051;-74
2022/10/14 06:20:34;;;;;;;183.15;30.80;;;11.00;99.90;;;;;;5070344;28;20044;-76
2022/10/14 06:23:01;;;;;;;224.88;32.40;;;11.00;99.90;;;;;;5074858;28;20048;-74
2022/10/14 06:25:27;;;;;;;201.57;30.30;;;11.00;99.90;;;;;;5070582;28;20049;-73
2022/10/14 06:27:53;;;;;;;199.38;31.33;;;11.00;99.90;;;;;;5082813;28;20653;-74
2022/10/14 06:30:18;;;;;;;152.07;29.30;;;11.00;99.90;;;;;;5070463;28;20147;-75
2022/10/14 06:32:44;;;;;;;173.07;31.75;;;11.00;99.90;;;;;;5036360;28;20058;-73
2022/10/14 06:35:10;;;;;;;175.93;31.83;;;11.00;99.90;;;;;;5070463;28;20486;-73
2022/10/14 06:37:37;;;;;;;207.27;33.03;;;11.10;99.90;;;;;;5069589;28;20062;-73
2022/10/14 06:40:04;;;;;;;170.10;31.35;;;11.00;99.90;;;;;;5080334;28;20039;-74
2022/10/14 06:42:30;;;;;;;171.95;32.22;;;11.00;99.90;;;;;;5094769;28;20044;-74
2022/10/14 06:44:55;;;;;;;151.07;32.10;;;11.00;99.90;;;;;;5053008;28;20088;-73
2022/10/14 06:47:21;;;;;;;178.43;33.40;;;11.10;99.90;;;;;;5077933;28;20094;-73
2022/10/14 06:49:47;;;;;;;133.45;31.85;;;11.10;99.90;;;;;;5080515;28;20076;-73
2022/10/14 06:52:12;;;;;;;149.90;33.58;;;11.10;99.90;;;;;;5058202;28;20079;-74
2022/10/14 06:54:38;;;;;;;149.32;34.10;;;11.10;99.90;;;;;;5071765;28;20114;-75
2022/10/14 06:57:04;;;;;;;132.20;32.85;;;11.20;99.90;;;;;;5082911;28;20094;-75
2022/10/14 06:59:29;;;;;;;136.20;33.25;;;11.20;99.90;;;;;;5070011;28;20169;-74
2022/10/14 07:01:55;;;;;;;182.43;35.97;;;11.30;99.90;;;;;;5069220;28;20222;-73
2022/10/14 07:04:21;;;;;;;225.90;39.67;;;11.30;99.90;;;;;;5079153;28;20036;-73
2022/10/14 07:06:46;;;;;;;139.93;35.30;;;11.40;99.90;;;;;;5069867;28;20123;-73
2022/10/14 07:09:12;;;;;;;156.70;40.45;;;11.40;99.90;;;;;;5069886;28;20067;-73
2022/10/14 07:11:38;;;;;;;158.30;37.63;;;11.50;99.90;;;;;;5085787;28;20058;-77
2022/10/14 07:14:04;;;;;;;156.68;36.58;;;11.40;99.90;;;;;;5088328;28;20394;-74
2022/10/14 07:16:30;;;;;;;174.98;37.45;;;11.50;99.90;;;;;;5056810;28;20506;-74
2022/10/14 07:18:55;;;;;;;129.43;35.60;;;11.60;99.90;;;;;;5069244;28;20085;-74
2022/10/14 07:21:21;;;;;;;171.18;37.67;;;11.60;99.90;;;;;;5054727;28;20048;-73
2022/10/14 07:23:47;;;;;;;146.93;36.25;;;11.60;99.90;;;;;;5093692;28;20047;-73
2022/10/14 07:26:12;;;;;;;122.35;33.53;;;11.70;99.90;;;;;;5078571;28;20044;-73
2022/10/14 07:28:38;;;;;;;133.50;34.75;;;11.70;99.90;;;;;;5069408;28;20139;-74
2022/10/14 07:31:06;;;;;;;104.95;32.28;;;11.70;99.90;;;;;;5069159;28;20053;-74
2022/10/14 07:33:34;;;;;;;112.70;33.08;;;11.70;99.90;;;;;;5069286;28;20047;-73
2022/10/14 07:36:05;;;;;;;101.28;31.23;;;11.70;99.90;;;;;;5083467;28;20127;-74
2022/10/14 07:38:31;;;;;;;116.07;32.72;;;11.70;99.90;;;;;;5088985;28;20115;-73
2022/10/14 07:41:18;;;;;;;133.77;32.45;;;11.80;99.90;;;;;;5072852;28;20185;-73
2022/10/14 07:43:46;;;;;;;113.05;31.08;;;11.80;99.90;;;;;;5068425;28;20157;-77
2022/10/14 07:46:12;;;;;;;107.57;32.45;;;11.80;99.90;;;;;;5068735;28;20119;-73
2022/10/14 07:48:39;;;;;;;111.80;33.30;;;11.80;99.90;;;;;;5069706;28;20057;-74
2022/10/14 07:51:06;;;;;;;109.97;31.20;;;11.80;99.90;;;;;;5074322;28;20048;-74
2022/10/14 07:53:32;;;;;;;118.97;33.85;;;11.70;99.90;;;;;;5091045;28;20090;-76
2022/10/14 07:55:58;;;;;;;132.90;34.33;;;11.70;99.90;;;;;;5086250;28;20075;-73
2022/10/14 07:58:27;;;;;;;106.88;32.80;;;11.70;99.90;;;;;;5090649;28;20126;-74
2022/10/14 08:00:53;;;;;;;104.85;31.80;;;11.70;99.90;;;;;;5077384;28;20044;-73
2022/10/14 08:03:19;;;;;;;93.72;31.92;;;11.80;99.90;;;;;;5073765;28;20554;-74
2022/10/14 08:05:46;;;;;;;95.55;31.80;;;12.00;99.90;;;;;;5079265;28;20129;-78
2022/10/14 08:08:12;;;;;;;89.22;29.10;;;12.00;99.90;;;;;;5061360;28;20048;-73
2022/10/14 08:10:39;;;;;;;122.75;32.85;;;12.10;99.90;;;;;;5071219;28;20056;-74
2022/10/14 08:13:05;;;;;;;84.85;28.98;;;12.20;99.90;;;;;;5069898;28;20047;-74
2022/10/14 08:15:37;;;;;;;75.40;29.15;;;12.30;99.90;;;;;;5081791;28;20036;-74
2022/10/14 08:18:04;;;;;;;84.70;28.58;;;12.50;99.90;;;;;;5068072;28;20145;-75
2022/10/14 08:20:31;;;;;;;73.03;28.23;;;12.50;99.90;;;;;;5085447;28;20041;-74
2022/10/14 08:22:57;;;;;;;65.85;26.30;;;12.60;99.90;;;;;;5047853;28;20048;-74
2022/10/14 08:25:23;;;;;;;68.80;26.58;;;12.60;99.90;;;;;;5070143;28;20052;-76
2022/10/14 08:27:50;;;;;;;68.40;26.10;;;12.50;99.90;;;;;;5067612;28;20072;-78
2022/10/14 08:30:16;;;;;;;67.20;26.50;;;12.60;99.90;;;;;;5055480;28;20043;-74
2022/10/14 08:32:42;;;;;;;72.15;26.90;;;12.60;99.90;;;;;;5073512;28;20546;-74
2022/10/14 08:35:08;;;;;;;66.18;26.45;;;12.50;99.90;;;;;;5042704;28;20185;-74
2022/10/14 08:37:35;;;;;;;75.82;28.00;;;12.50;99.90;;;;;;5073715;28;20048;-74
2022/10/14 08:40:00;;;;;;;63.22;26.80;;;12.50;99.90;;;;;;5061635;28;20044;-74
2022/10/14 08:42:37;;;;;;;76.00;27.50;;;12.50;99.90;;;;;;5068351;28;20063;-74
2022/10/14 08:45:34;;;;;;;67.68;26.55;;;12.50;99.90;;;;;;5076163;28;20775;-75
2022/10/14 08:48:10;;;;;;;68.47;27.60;;;12.50;99.90;;;;;;5075819;28;20075;-74
2022/10/14 08:50:46;;;;;;;72.47;28.27;;;12.50;99.90;;;;;;5071045;28;20052;-74
2022/10/14 08:53:17;;;;;;;70.60;26.67;;;12.50;99.90;;;;;;5068785;28;20056;-74
2022/10/14 08:55:49;;;;;;;79.07;28.67;;;12.60;99.90;;;;;;5081531;28;20036;-74
2022/10/14 08:58:42;;;;;;;70.32;28.20;;;12.70;99.90;;;;;;5068611;28;20076;-74
2022/10/14 09:01:27;;;;;;;79.00;29.52;;;12.80;99.90;;;;;;5078013;28;20074;-74
2022/10/14 09:03:58;;;;;;;113.83;31.93;;;12.90;99.90;;;;;;5067837;28;20679;-78
2022/10/14 09:06:26;;;;;;;75.47;29.35;;;13.00;99.90;;;;;;5068778;28;20451;-75
2022/10/14 09:08:55;;;;;;;73.72;29.10;;;13.00;99.90;;;;;;5075997;28;20437;-74
2022/10/14 09:11:23;;;;;;;69.45;28.85;;;12.90;99.90;;;;;;5086295;28;20048;-74
2022/10/14 09:13:59;;;;;;;73.35;27.98;;;12.90;99.90;;;;;;5070113;28;20066;-76
2022/10/14 09:16:29;;;;;;;71.18;28.00;;;12.80;99.90;;;;;;5077417;28;20063;-74
2022/10/14 09:19:27;;;;;;;76.28;28.27;;;12.80;99.90;;;;;;5067639;28;20037;-79
2022/10/14 09:21:54;;;;;;;70.28;28.27;;;12.80;99.90;;;;;;5070750;28;20056;-75
2022/10/14 09:24:37;;;;;;;72.22;28.40;;;12.80;99.90;;;;;;5067761;28;20048;-74
2022/10/14 09:27:06;;;;;;;69.18;27.35;;;12.80;99.90;;;;;;5067244;28;20553;-74
2022/10/14 09:29:41;;;;;;;71.25;27.27;;;12.90;99.90;;;;;;5067601;28;20075;-73
2022/10/14 09:32:11;;;;;;;76.72;30.52;;;13.00;99.90;;;;;;5050495;28;20047;-75
2022/10/14 09:34:46;;;;;;;86.68;29.20;;;13.00;99.90;;;;;;5051224;28;20037;-74
2022/10/14 09:37:32;;;;;;;77.63;28.57;;;13.00;99.90;;;;;;5067155;28;20123;-75
2022/10/14 09:40:02;;;;;;;83.07;29.30;;;13.00;99.90;;;;;;5079374;28;20293;-79
2022/10/14 09:42:51;;;;;;;76.15;29.02;;;13.00;99.90;;;;;;5087350;28;20037;-74
2022/10/14 09:45:21;;;;;;;69.35;27.85;;;13.10;99.90;;;;;;5055823;28;20306;-75
2022/10/14 09:47:55;;;;;;;78.30;28.10;;;13.10;99.90;;;;;;5074779;28;20054;-75
2022/10/14 09:50:25;;;;;;;82.35;28.88;;;13.10;99.90;;;;;;5057645;28;20097;-75
2022/10/14 09:52:55;;;;;;;87.15;28.70;;;13.10;99.90;;;;;;5091291;28;20044;-75
2022/10/14 09:55:25;;;;;;;86.32;28.23;;;13.10;99.90;;;;;;5073918;28;20047;-76
2022/10/14 09:58:02;;;;;;;86.75;29.27;;;13.10;99.90;;;;;;5085085;28;20050;-76
2022/10/14 10:00:30;;;;;;;82.00;28.15;;;13.10;99.90;;;;;;5078560;28;20095;-75
2022/10/14 10:02:56;;;;;;;91.53;30.45;;;13.10;99.90;;;;;;5087379;28;20052;-75
2022/10/14 10:05:24;;;;;;;106.32;30.95;;;13.10;99.90;;;;;;5090498;28;20059;-75
2022/10/14 10:08:03;;;;;;;95.57;28.33;;;13.10;99.90;;;;;;5091271;28;20544;-74
2022/10/14 10:10:34;;;;;;;86.28;27.80;;;13.10;99.90;;;;;;5074729;28;20044;-76
2022/10/14 10:13:01;;;;;;;118.95;31.27;;;13.10;99.90;;;;;;5058431;28;20048;-76
2022/10/14 10:15:27;;;;;;;123.90;30.67;;;13.00;99.90;;;;;;5101482;28;20040;-75
2022/10/14 10:17:53;;;;;;;122.43;30.25;;;13.00;99.90;;;;;;5064585;28;20502;-75
2022/10/14 10:20:34;;;;;;;119.30;30.42;;;13.00;99.90;;;;;;5107080;28;20578;-76
2022/10/14 10:23:26;;;;;;;127.90;29.60;;;13.00;99.90;;;;;;5107789;28;20128;-75
2022/10/14 10:25:52;;;;;;;117.40;28.48;;;13.00;99.90;;;;;;5086603;28;20566;-75
2022/10/14 10:28:30;;;;;;;119.25;29.33;;;13.00;99.90;;;;;;5079995;28;20031;-75
2022/10/14 10:31:22;;;;;;;125.18;27.85;;;13.00;99.90;;;;;;5109584;27;20613;-76
2022/10/14 10:34:07;;;;;;;102.20;27.20;;;13.00;99.90;;;;;;5084243;28;20092;-75
2022/10/14 10:36:40;;;;;;;103.07;30.90;;;13.00;99.90;;;;;;5074263;28;20100;-75
2022/10/14 10:39:34;;;;;;;93.15;28.52;;;13.00;99.90;;;;;;5073283;28;20498;-78
2022/10/14 10:42:14;;;;;;;109.60;28.67;;;13.10;99.90;;;;;;5073794;28;20048;-75
2022/10/14 10:44:40;;;;;;;83.68;24.77;;;13.20;99.90;;;;;;5081124;28;20036;-75
2022/10/14 10:47:23;;;;;;;97.10;26.63;;;13.30;99.90;;;;;;5094877;28;20055;-77
2022/10/14 10:50:14;;;;;;;83.20;26.27;;;13.30;99.90;;;;;;5084086;28;20423;-76
2022/10/14 10:52:48;;;;;;;81.88;24.20;;;13.30;99.90;;;;;;5073647;28;20048;-75
2022/10/14 10:55:47;;;;;;;88.47;26.05;;;13.30;99.90;;;;;;5085643;27;20043;-77
2022/10/14 10:58:34;;;;;;;77.93;24.17;;;13.20;99.90;;;;;;5072652;28;20097;-76
2022/10/14 11:01:35;;;;;;;88.97;25.25;;;13.20;99.90;;;;;;5116386;27;20047;-76
2022/10/14 11:04:16;;;;;;;87.28;23.92;;;13.30;99.90;;;;;;5085337;28;20067;-75
2022/10/14 11:13:11;;;;;;;89.53;24.52;;;13.30;99.90;;;;;;5090221;28;20501;-74
2022/10/14 11:15:49;;;;;;;85.13;22.25;;;13.30;99.90;;;;;;5131471;27;20382;-74
2022/10/14 11:18:31;;;;;;;72.10;21.23;;;13.30;99.90;;;;;;5072178;28;20052;-76
2022/10/14 11:21:14;;;;;;;101.72;23.55;;;13.30;99.90;;;;;;5073301;28;20048;-75
2022/10/14 11:24:04;;;;;;;82.90;22.95;;;13.30;99.90;;;;;;5089779;28;20499;-75
2022/10/14 11:27:04;;;;;;;58.97;19.35;;;13.30;99.90;;;;;;5123720;27;20382;-75
2022/10/14 11:29:55;;;;;;;82.13;22.58;;;13.30;99.90;;;;;;5093202;28;20071;-75
2022/10/14 11:32:39;;;;;;;61.13;20.65;;;13.50;99.90;;;;;;5072016;28;20565;-75
2022/10/14 11:35:21;;;;;;;64.60;20.52;;;13.60;99.90;;;;;;5114454;27;20371;-75
2022/10/14 11:38:00;;;;;;;73.30;21.55;;;13.70;99.90;;;;;;5074565;28;20039;-75
2022/10/14 11:40:45;;;;;;;54.17;19.85;;;13.70;99.90;;;;;;5089216;28;20490;-75
2022/10/14 11:43:31;;;;;;;56.53;19.00;;;13.70;99.90;;;;;;5072560;28;20047;-75
2022/10/14 11:46:18;;;;;;;69.88;21.02;;;13.80;99.90;;;;;;5076429;28;20051;-75
2022/10/14 11:48:53;;;;;;;41.90;17.75;;;13.70;99.90;;;;;;5102408;27;20137;-76
2022/10/14 11:51:56;;;;;;;72.40;20.92;;;13.80;99.90;;;;;;5092133;28;20044;-77
2022/10/14 11:54:31;;;;;;;51.70;19.30;;;13.80;99.90;;;;;;5105790;28;20139;-75
2022/10/14 11:57:06;;;;;;;67.77;20.90;;;13.80;99.90;;;;;;5099160;28;20111;-75
2022/10/14 12:00:02;;;;;;;49.35;19.70;;;14.00;99.90;;;;;;5071836;28;20293;-75
2022/10/14 12:03:02;;;;;;;54.10;21.20;;;14.10;99.90;;;;;;5059936;28;20120;-75
2022/10/14 12:05:39;;;;;;;60.97;22.27;;;14.10;99.90;;;;;;5071577;28;20031;-76
2022/10/14 12:08:14;;;;;;;82.75;24.88;;;14.10;99.90;;;;;;5073153;28;20066;-76
2022/10/14 12:10:52;;;;;;;60.63;22.88;;;14.10;99.90;;;;;;5092454;27;20059;-75
2022/10/14 12:13:25;;;;;;;78.32;26.52;;;14.10;99.90;;;;;;5060666;28;20381;-79
2022/10/14 12:15:52;;;;;;;87.70;28.45;;;14.10;99.90;;;;;;5093354;28;20101;-75
2022/10/14 12:18:21;;;;;;;76.28;27.80;;;14.10;99.90;;;;;;5054983;28;20144;-75
2022/10/14 12:21:02;;;;;;;87.85;30.20;;;14.10;99.90;;;;;;5071816;28;20047;-75
2022/10/14 12:23:36;;;;;;;85.90;31.02;;;14.00;99.90;;;;;;5071292;28;20032;-75
2022/10/14 12:26:23;;;;;;;85.70;30.25;;;14.00;99.90;;;;;;5082601;28;20048;-75
2022/10/14 12:28:49;;;;;;;;;;;14.00;99.90;;;;;;5072400;28;20127;-75
2022/10/14 12:31:38;;;;;;;104.45;34.97;;;14.10;99.90;;;;;;5071376;28;20448;-76
2022/10/14 12:34:10;;;;;;;107.53;36.45;;;14.10;99.90;;;;;;5055067;28;20154;-76
2022/10/14 12:36:37;;;;;;;128.75;38.72;;;14.20;99.90;;;;;;5087860;28;20036;-75
2022/10/14 12:39:17;;;;;;;126.15;38.85;;;14.10;99.90;;;;;;5071470;28;20040;-75
2022/10/14 12:42:01;;;;;;;131.80;40.50;;;14.10;99.90;;;;;;5097712;28;20047;-75
2022/10/14 12:44:50;;;;;;;117.00;39.75;;;14.20;99.90;;;;;;5077955;28;20070;-74
2022/10/14 12:47:23;;;;;;;134.45;42.83;;;14.20;99.90;;;;;;5108406;28;20087;-74